createdAt,value
2022-09-02T00:00:33.323Z,16.10
2022-09-02T00:03:08.147Z,16.10
2022-09-02T00:05:41.963Z,16.09
2022-09-02T00:08:15.967Z,16.09
2022-09-02T00:10:50.204Z,16.08
2022-09-02T00:13:23.849Z,16.09
2022-09-02T00:15:57.830Z,16.06
2022-09-02T00:18:32.749Z,16.06
2022-09-02T00:21:06.948Z,16.07
2022-09-02T00:23:41.483Z,16.06
2022-09-02T00:26:15.861Z,16.04
2022-09-02T00:28:55.995Z,16.03
2022-09-02T00:31:30.158Z,16.02
2022-09-02T00:34:04.357Z,15.99
2022-09-02T00:36:38.122Z,16.00
2022-09-02T00:39:12.489Z,15.98
2022-09-02T00:41:46.931Z,15.95
2022-09-02T00:44:22.021Z,15.92
2022-09-02T00:46:55.645Z,15.88
2022-09-02T00:49:30.926Z,15.86
2022-09-02T00:52:09.570Z,15.84
2022-09-02T00:54:47.587Z,15.81
2022-09-02T00:57:24.051Z,15.79
2022-09-02T01:00:02.823Z,15.78
2022-09-02T01:02:37.816Z,15.75
2022-09-02T01:05:16.053Z,15.74
2022-09-02T01:07:51.675Z,15.71
2022-09-02T01:10:27.549Z,15.68
2022-09-02T01:13:05.440Z,15.64
2022-09-02T01:15:42.087Z,15.61
2022-09-02T01:18:20.703Z,15.56
2022-09-02T01:20:54.428Z,15.55
2022-09-02T01:23:28.473Z,15.54
2022-09-02T01:26:05.603Z,15.49
2022-09-02T01:28:39.324Z,15.47
2022-09-02T01:31:13.206Z,15.45
2022-09-02T01:33:47.151Z,15.42
2022-09-02T01:36:21.403Z,15.41
2022-09-02T01:38:54.480Z,15.37
2022-09-02T01:41:28.043Z,15.33
2022-09-02T01:44:02.484Z,15.31
2022-09-02T01:46:36.860Z,15.27
2022-09-02T01:49:10.442Z,15.25
2022-09-02T01:51:45.552Z,15.24
2022-09-02T01:54:19.027Z,15.22
2022-09-02T01:56:52.671Z,15.22
2022-09-02T01:59:26.205Z,15.21
2022-09-02T02:01:59.663Z,15.19
2022-09-02T02:04:33.782Z,15.15
2022-09-02T02:07:08.093Z,15.15
2022-09-02T02:09:42.271Z,15.15
2022-09-02T02:12:20.366Z,15.15
2022-09-02T02:14:55.024Z,15.13
2022-09-02T02:17:29.223Z,15.13
2022-09-02T02:20:02.836Z,15.14
2022-09-02T02:22:37.075Z,15.15
2022-09-02T02:25:11.799Z,15.17
2022-09-02T02:27:45.963Z,15.18
2022-09-02T02:30:20.127Z,15.17
2022-09-02T02:32:53.874Z,15.15
2022-09-02T02:35:27.406Z,15.11
2022-09-02T02:38:02.818Z,15.08
2022-09-02T02:40:37.855Z,15.03
2022-09-02T02:43:11.303Z,14.97
2022-09-02T02:45:44.905Z,14.93
2022-09-02T02:48:19.320Z,14.93
2022-09-02T02:50:53.623Z,14.92
2022-09-02T02:53:30.035Z,14.89
2022-09-02T02:56:03.803Z,14.90
2022-09-02T02:58:37.967Z,14.90
2022-09-02T03:01:13.472Z,14.89
2022-09-02T03:03:47.171Z,14.89
2022-09-02T03:06:24.838Z,14.87
2022-09-02T03:09:01.089Z,14.83
2022-09-02T03:11:34.847Z,14.77
2022-09-02T03:14:08.922Z,14.72
2022-09-02T03:16:42.921Z,14.65
2022-09-02T03:19:16.532Z,14.61
2022-09-02T03:21:50.406Z,14.59
2022-09-02T03:24:23.940Z,14.58
2022-09-02T03:26:57.420Z,14.56
2022-09-02T03:29:30.872Z,14.53
2022-09-02T03:32:05.081Z,14.49
2022-09-02T03:34:42.173Z,14.45
2022-09-02T03:37:15.935Z,14.42
2022-09-02T03:39:49.386Z,14.39
2022-09-02T03:42:22.785Z,14.32
2022-09-02T03:44:57.014Z,14.30
2022-09-02T03:47:31.148Z,14.30
2022-09-02T03:50:05.587Z,14.32
2022-09-02T03:52:39.047Z,14.35
2022-09-02T03:55:14.034Z,14.39
2022-09-02T03:57:47.529Z,14.42
2022-09-02T04:00:24.445Z,14.41
2022-09-02T04:02:58.515Z,14.42
2022-09-02T04:05:32.018Z,14.41
2022-09-02T04:08:06.909Z,14.39
2022-09-02T04:10:40.882Z,14.40
2022-09-02T04:13:14.421Z,14.39
2022-09-02T04:15:49.690Z,14.38
2022-09-02T04:18:25.540Z,14.36
2022-09-02T04:21:02.957Z,14.36
2022-09-02T04:23:37.079Z,14.36
2022-09-02T04:26:12.857Z,14.36
2022-09-02T04:28:46.810Z,14.36
2022-09-02T04:31:21.887Z,14.35
2022-09-02T04:33:57.259Z,14.34
2022-09-02T04:36:32.211Z,14.34
2022-09-02T04:39:09.942Z,14.34
2022-09-02T04:41:43.547Z,14.33
2022-09-02T04:44:18.511Z,14.31
2022-09-02T04:46:53.394Z,14.30
2022-09-02T04:49:31.929Z,14.33
2022-09-02T04:52:05.859Z,14.38
2022-09-02T04:54:39.546Z,14.42
2022-09-02T04:57:13.409Z,14.48
2022-09-02T04:59:47.079Z,14.54
2022-09-02T05:02:21.085Z,14.62
2022-09-02T05:04:55.383Z,14.71
2022-09-02T05:07:34.100Z,14.78
2022-09-02T05:10:08.776Z,14.82
2022-09-02T05:12:45.851Z,14.87
2022-09-02T05:15:19.418Z,14.93
2022-09-02T05:17:54.207Z,15.00
2022-09-02T05:20:28.820Z,15.06
2022-09-02T05:23:02.973Z,15.12
2022-09-02T05:25:37.953Z,15.19
2022-09-02T05:28:11.951Z,15.24
2022-09-02T05:30:46.104Z,15.27
2022-09-02T05:33:19.423Z,15.32
2022-09-02T05:35:54.773Z,15.36
2022-09-02T05:38:29.995Z,15.46
2022-09-02T05:41:08.673Z,15.55
2022-09-02T05:43:44.924Z,15.66
2022-09-02T05:46:22.534Z,15.96
2022-09-02T05:49:12.907Z,16.16
2022-09-02T05:51:53.416Z,16.20
2022-09-02T05:54:31.656Z,16.19
2022-09-02T05:57:09.420Z,16.21
2022-09-02T05:59:46.582Z,16.29
2022-09-02T06:02:22.224Z,16.35
2022-09-02T06:04:56.802Z,16.42
2022-09-02T06:07:30.619Z,16.52
2022-09-02T06:10:06.608Z,16.58
2022-09-02T06:12:42.637Z,16.71
2022-09-02T06:15:16.966Z,16.85
2022-09-02T06:17:50.209Z,16.96
2022-09-02T06:20:23.594Z,17.09
2022-09-02T06:22:57.821Z,17.23
2022-09-02T06:25:31.414Z,17.49
2022-09-02T06:28:07.438Z,18.00
2022-09-02T06:30:46.978Z,18.59
2022-09-02T06:33:21.936Z,18.96
2022-09-02T06:35:55.755Z,19.37
2022-09-02T06:38:29.028Z,20.50
2022-09-02T06:41:02.816Z,21.89
2022-09-02T06:43:43.814Z,23.09
2022-09-02T06:46:29.104Z,25.29
2022-09-02T06:49:04.646Z,27.78
2022-09-02T06:51:40.704Z,30.02
2022-09-02T06:54:16.706Z,31.98
2022-09-02T06:56:51.946Z,33.69
2022-09-02T06:59:28.145Z,35.38
2022-09-02T07:02:04.254Z,36.83
2022-09-02T07:04:57.622Z,38.05
2022-09-02T07:07:31.881Z,39.30
2022-09-02T07:10:15.337Z,40.21
2022-09-02T07:12:52.966Z,40.76
2022-09-02T07:15:27.065Z,41.38
2022-09-02T07:18:00.623Z,41.96
2022-09-02T07:20:46.175Z,42.20
2022-09-02T07:23:19.791Z,42.58
2022-09-02T07:25:55.810Z,43.09
2022-09-02T07:28:30.107Z,42.93
2022-09-02T07:31:04.527Z,42.43
2022-09-02T07:33:38.771Z,42.44
2022-09-02T07:36:14.273Z,41.52
2022-09-02T07:38:48.060Z,39.94
2022-09-02T07:41:22.093Z,38.52
2022-09-02T07:43:59.529Z,37.33
2022-09-02T07:46:35.094Z,36.08
2022-09-02T07:49:11.417Z,34.90
2022-09-02T07:51:49.668Z,33.81
2022-09-02T07:54:26.063Z,32.71
2022-09-02T07:57:00.120Z,32.06
2022-09-02T07:59:33.544Z,31.62
2022-09-02T08:02:08.327Z,31.01
2022-09-02T08:04:42.066Z,31.45
2022-09-02T08:07:17.234Z,33.55
2022-09-02T08:09:50.815Z,35.47
2022-09-02T08:12:24.539Z,36.98
2022-09-02T08:14:59.081Z,38.23
2022-09-02T08:17:32.953Z,38.62
2022-09-02T08:20:11.710Z,38.59
2022-09-02T08:22:50.817Z,37.33
2022-09-02T08:25:33.129Z,36.10
2022-09-02T08:28:07.293Z,34.88
2022-09-02T08:30:41.020Z,33.96
2022-09-02T08:33:14.253Z,33.40
2022-09-02T08:35:48.555Z,32.72
2022-09-02T08:38:22.768Z,32.04
2022-09-02T08:40:56.236Z,32.65
2022-09-02T08:43:37.846Z,33.62
2022-09-02T08:46:17.055Z,33.04
2022-09-02T08:48:54.578Z,32.00
2022-09-02T08:51:37.151Z,31.01
2022-09-02T08:54:18.010Z,30.08
2022-09-02T08:56:52.089Z,29.42
2022-09-02T08:59:28.457Z,28.86
2022-09-02T09:02:09.303Z,28.12
2022-09-02T09:05:07.656Z,27.60
2022-09-02T09:07:50.435Z,27.17
2022-09-02T09:10:28.746Z,26.72
2022-09-02T09:13:17.253Z,26.34
2022-09-02T09:15:57.975Z,25.94
2022-09-02T09:18:39.463Z,25.55
2022-09-02T09:21:15.003Z,25.32
2022-09-02T09:23:50.825Z,25.10
2022-09-02T09:26:29.233Z,24.79
2022-09-02T09:29:05.088Z,24.59
2022-09-02T09:31:41.160Z,24.42
2022-09-02T09:34:15.912Z,24.26
2022-09-02T09:36:56.374Z,24.07
2022-09-02T09:39:32.851Z,23.92
2022-09-02T09:42:16.185Z,23.85
2022-09-02T09:44:49.975Z,23.76
2022-09-02T09:47:26.235Z,23.76
2022-09-02T09:50:14.566Z,23.80
2022-09-02T09:52:48.177Z,24.42
2022-09-02T09:55:25.225Z,25.77
2022-09-02T09:58:11.724Z,26.69
2022-09-02T10:00:46.385Z,26.71
2022-09-02T10:03:32.928Z,26.41
2022-09-02T10:06:23.132Z,26.02
2022-09-02T10:08:59.259Z,25.62
2022-09-02T10:11:34.325Z,25.24
2022-09-02T10:14:10.426Z,25.04
2022-09-02T10:16:56.615Z,24.96
2022-09-02T10:19:39.446Z,24.95
2022-09-02T10:22:59.057Z,24.85
2022-09-02T10:25:42.080Z,24.61
2022-09-02T10:28:30.539Z,24.48
2022-09-02T10:31:13.762Z,24.35
2022-09-02T10:34:03.203Z,24.26
2022-09-02T10:36:47.301Z,24.12
2022-09-02T10:39:30.532Z,24.07
2022-09-02T10:42:16.568Z,23.98
2022-09-02T10:45:04.231Z,23.93
2022-09-02T10:47:40.689Z,23.90
2022-09-02T10:50:24.431Z,23.86
2022-09-02T10:53:17.889Z,23.78
2022-09-02T10:55:59.052Z,23.75
2022-09-02T10:58:46.326Z,23.82
2022-09-02T11:01:24.455Z,23.61
2022-09-02T11:04:07.209Z,23.52
2022-09-02T11:07:02.844Z,23.60
2022-09-02T11:09:42.227Z,23.61
2022-09-02T11:12:20.385Z,23.52
2022-09-02T11:15:05.621Z,23.40
2022-09-02T11:17:45.907Z,23.25
2022-09-02T11:20:30.923Z,23.30
2022-09-02T11:23:10.773Z,23.36
2022-09-02T11:25:49.554Z,23.44
2022-09-02T11:28:38.772Z,23.43
2022-09-02T11:31:19.326Z,23.74
2022-09-02T11:33:58.711Z,24.83
2022-09-02T11:36:33.458Z,25.22
2022-09-02T11:39:12.311Z,25.28
2022-09-02T11:42:00.805Z,25.39
2022-09-02T11:45:10.661Z,25.44
2022-09-02T11:48:14.310Z,25.37
2022-09-02T11:54:04.820Z,25.41
2022-09-02T11:56:43.291Z,25.40
2022-09-02T11:59:45.746Z,25.34
2022-09-02T12:02:37.413Z,25.25
2022-09-02T12:05:45.316Z,25.00
2022-09-02T12:08:56.391Z,24.71
2022-09-02T12:11:53.512Z,24.59
2022-09-02T12:15:05.544Z,25.05
2022-09-02T12:18:09.028Z,26.98
2022-09-02T12:21:16.588Z,29.33
2022-09-02T12:24:23.240Z,31.66
2022-09-02T12:27:26.301Z,32.90
2022-09-02T12:30:00.403Z,32.68
2022-09-02T12:33:08.276Z,32.18
2022-09-02T12:35:59.896Z,32.28
2022-09-02T12:38:39.185Z,32.22
2022-09-02T12:41:22.457Z,33.08
2022-09-02T12:44:30.135Z,32.73
2022-09-02T12:47:10.630Z,32.62
2022-09-02T12:49:56.495Z,31.84
2022-09-02T12:52:48.782Z,31.25
2022-09-02T12:55:29.479Z,30.26
2022-09-02T12:58:14.883Z,29.29
2022-09-02T13:01:02.958Z,28.52
2022-09-02T13:04:14.989Z,28.09
2022-09-02T13:07:13.836Z,27.96
2022-09-02T13:10:26.027Z,28.40
2022-09-02T13:13:24.743Z,28.04
2022-09-02T13:16:19.362Z,27.44
2022-09-02T13:19:29.593Z,26.97
2022-09-02T13:22:24.276Z,26.34
2022-09-02T13:25:33.448Z,26.19
2022-09-02T13:28:42.501Z,26.04
2022-09-02T13:31:23.125Z,26.01
2022-09-02T13:34:05.611Z,26.00
2022-09-02T13:36:44.750Z,25.93
2022-09-02T13:39:20.295Z,25.89
2022-09-02T13:41:53.835Z,25.83
2022-09-02T13:44:29.828Z,25.60
2022-09-02T13:47:06.818Z,25.43
2022-09-02T13:49:42.571Z,25.39
2022-09-02T13:52:23.998Z,25.47
2022-09-02T13:55:09.677Z,25.55
2022-09-02T13:57:49.145Z,25.44
2022-09-02T14:00:33.946Z,25.31
2022-09-02T14:03:10.075Z,25.09
2022-09-02T14:05:47.627Z,24.98
2022-09-02T14:08:24.478Z,24.93
2022-09-02T14:10:58.725Z,24.84
2022-09-02T14:13:32.127Z,24.61
2022-09-02T14:16:28.031Z,24.49
2022-09-02T14:19:14.993Z,24.38
2022-09-02T14:21:54.743Z,24.51
2022-09-02T14:24:30.953Z,24.65
2022-09-02T14:27:04.598Z,24.77
2022-09-02T14:29:45.332Z,24.81
2022-09-02T14:32:23.478Z,24.83
2022-09-02T14:35:24.139Z,24.73
2022-09-02T14:37:59.907Z,24.55
2022-09-02T14:40:39.254Z,24.37
2022-09-02T14:43:17.868Z,24.25
2022-09-02T14:45:52.287Z,24.15
2022-09-02T14:48:28.454Z,24.04
2022-09-02T14:51:07.416Z,23.88
2022-09-02T14:53:45.333Z,23.68
2022-09-02T14:56:39.529Z,23.59
2022-09-02T14:59:13.094Z,23.47
2022-09-02T15:01:48.773Z,23.39
2022-09-02T15:04:22.431Z,23.30
2022-09-02T15:06:57.106Z,23.24
2022-09-02T15:09:30.139Z,23.19
2022-09-02T15:12:03.883Z,23.18
2022-09-02T15:14:37.570Z,23.17
2022-09-02T15:17:15.509Z,23.15
2022-09-02T15:19:48.745Z,23.15
2022-09-02T15:22:23.101Z,23.20
2022-09-02T15:24:58.608Z,23.29
2022-09-02T15:27:32.215Z,23.41
2022-09-02T15:30:06.508Z,23.50
2022-09-02T15:32:40.463Z,23.49
2022-09-02T15:35:14.513Z,23.44
2022-09-02T15:37:50.871Z,23.38
2022-09-02T15:40:25.052Z,23.32
2022-09-02T15:42:58.755Z,23.26
2022-09-02T15:45:31.936Z,23.16
2022-09-02T15:48:07.391Z,23.07
2022-09-02T15:50:41.665Z,23.01
2022-09-02T15:53:16.067Z,23.03
2022-09-02T15:55:49.995Z,23.04
2022-09-02T15:58:23.524Z,22.99
2022-09-02T16:00:58.622Z,22.89
2022-09-02T16:03:32.727Z,22.81
2022-09-02T16:06:08.824Z,22.77
2022-09-02T16:08:42.178Z,22.76
2022-09-02T16:11:15.563Z,22.71
2022-09-02T16:13:49.328Z,22.66
2022-09-02T16:16:23.427Z,22.60
2022-09-02T16:18:57.501Z,22.58
2022-09-02T16:21:30.737Z,22.54
2022-09-02T16:24:04.570Z,22.50
2022-09-02T16:26:39.574Z,22.49
2022-09-02T16:29:15.230Z,22.49
2022-09-02T16:32:02.362Z,22.46
2022-09-02T16:34:45.804Z,22.42
2022-09-02T16:37:19.286Z,22.40
2022-09-02T16:39:53.843Z,22.35
2022-09-02T16:42:27.682Z,22.36
2022-09-02T16:45:01.740Z,22.32
2022-09-02T16:47:35.271Z,22.29
2022-09-02T16:50:12.707Z,22.30
2022-09-02T16:52:46.297Z,22.30
2022-09-02T16:55:19.621Z,22.28
2022-09-02T16:57:53.178Z,22.27
2022-09-02T17:00:26.383Z,22.26
2022-09-02T17:02:59.991Z,22.23
2022-09-02T17:05:33.410Z,22.19
2022-09-02T17:08:07.623Z,22.16
2022-09-02T17:10:41.171Z,22.10
2022-09-02T17:13:15.008Z,22.03
2022-09-02T17:15:48.369Z,21.99
2022-09-02T17:18:21.678Z,21.97
2022-09-02T17:21:11.701Z,21.91
2022-09-02T17:23:45.124Z,21.85
2022-09-02T17:26:18.853Z,21.81
2022-09-02T17:28:55.000Z,21.77
2022-09-02T17:31:31.090Z,21.71
2022-09-02T17:34:05.814Z,21.68
2022-09-02T17:36:44.629Z,21.64
2022-09-02T17:39:22.363Z,21.59
2022-09-02T17:41:59.033Z,21.55
2022-09-02T17:44:35.263Z,21.50
2022-09-02T17:47:10.293Z,21.44
2022-09-02T17:49:45.015Z,21.37
2022-09-02T17:52:20.521Z,21.33
2022-09-02T17:54:55.557Z,21.27
2022-09-02T17:57:49.217Z,21.21
2022-09-02T18:00:27.244Z,21.15
2022-09-02T18:03:25.728Z,21.05
2022-09-02T18:06:02.277Z,20.97
2022-09-02T18:08:46.860Z,20.86
2022-09-02T18:11:22.480Z,20.76
2022-09-02T18:14:07.769Z,20.69
2022-09-02T18:16:52.279Z,20.65
2022-09-02T18:19:39.466Z,20.57
2022-09-02T18:22:35.954Z,20.50
2022-09-02T18:25:24.268Z,20.46
2022-09-02T18:28:07.761Z,20.40
2022-09-02T18:30:49.516Z,20.33
2022-09-02T18:33:40.174Z,20.27
2022-09-02T18:36:25.803Z,20.20
2022-09-02T18:39:17.413Z,20.13
2022-09-02T18:42:05.474Z,20.08
2022-09-02T18:44:51.103Z,20.01
2022-09-02T18:47:32.727Z,19.92
2022-09-02T18:50:11.380Z,19.83
2022-09-02T18:52:54.127Z,19.78
2022-09-02T18:55:35.714Z,19.71
2022-09-02T18:58:15.156Z,19.66
2022-09-02T19:00:58.041Z,19.60
2022-09-02T19:03:37.097Z,19.52
2022-09-02T19:06:18.854Z,19.46
2022-09-02T19:09:03.316Z,19.42
2022-09-02T19:11:38.781Z,19.35
2022-09-02T19:14:26.778Z,19.29
2022-09-02T19:17:01.309Z,19.24
2022-09-02T19:19:35.723Z,19.20
2022-09-02T19:22:11.951Z,19.14
2022-09-02T19:24:49.147Z,19.08
2022-09-02T19:27:25.824Z,18.97
2022-09-02T19:30:05.823Z,18.89
2022-09-02T19:32:41.522Z,18.86
2022-09-02T19:35:18.678Z,18.82
2022-09-02T19:37:54.790Z,18.80
2022-09-02T19:40:31.874Z,18.75
2022-09-02T19:43:07.932Z,18.71
2022-09-02T19:45:41.441Z,18.69
2022-09-02T19:48:15.791Z,18.69
2022-09-02T19:50:50.181Z,18.67
2022-09-02T19:53:28.235Z,18.68
2022-09-02T19:56:02.095Z,18.67
2022-09-02T19:58:35.293Z,18.68
2022-09-02T20:01:10.218Z,18.69
2022-09-02T20:03:43.547Z,18.69
2022-09-02T20:06:17.002Z,18.69
2022-09-02T20:08:50.283Z,18.68
2022-09-02T20:11:23.880Z,18.66
2022-09-02T20:13:57.562Z,18.64
2022-09-02T20:16:31.374Z,18.62
2022-09-02T20:19:04.982Z,18.60
2022-09-02T20:21:43.661Z,18.58
2022-09-02T20:24:17.205Z,18.56
2022-09-02T20:26:59.373Z,18.50
2022-09-02T20:29:48.150Z,18.44
2022-09-02T20:32:33.649Z,18.41
2022-09-02T20:35:16.814Z,18.36
2022-09-02T20:37:58.471Z,18.34
2022-09-02T20:40:38.737Z,18.34
2022-09-02T20:43:28.711Z,18.28
2022-09-02T20:46:10.457Z,18.27
2022-09-02T20:48:55.411Z,18.27
2022-09-02T20:51:36.461Z,18.22
2022-09-02T20:54:20.987Z,18.17
2022-09-02T20:57:04.375Z,18.14
2022-09-02T20:59:55.001Z,18.12
2022-09-02T21:02:34.441Z,18.08
2022-09-02T21:05:22.647Z,18.06
2022-09-02T21:08:03.387Z,18.05
2022-09-02T21:10:42.518Z,18.03
2022-09-02T21:13:22.473Z,17.99
2022-09-02T21:16:00.232Z,17.97
2022-09-02T21:18:40.495Z,17.97
2022-09-02T21:21:25.156Z,17.94
2022-09-02T21:24:04.924Z,17.90
2022-09-02T21:26:49.163Z,17.87
2022-09-02T21:29:29.000Z,17.86
2022-09-02T21:32:06.751Z,17.83
2022-09-02T21:34:48.373Z,17.78
2022-09-02T21:37:22.109Z,17.73
2022-09-02T21:39:58.282Z,17.67
2022-09-02T21:42:42.453Z,17.66
2022-09-02T21:45:24.941Z,17.64
2022-09-02T21:48:17.491Z,17.59
2022-09-02T21:50:58.986Z,17.54
2022-09-02T21:53:45.511Z,17.50
2022-09-02T21:56:34.303Z,17.44
2022-09-02T21:59:33.577Z,17.41
2022-09-02T22:02:12.414Z,17.33
2022-09-02T22:04:59.288Z,17.27
2022-09-02T22:07:39.697Z,17.23
2022-09-02T22:10:18.705Z,17.18
2022-09-02T22:12:54.735Z,17.10
2022-09-02T22:15:35.484Z,17.04
2022-09-02T22:18:21.751Z,17.01
2022-09-02T22:21:01.728Z,16.97
2022-09-02T22:23:36.576Z,16.93
2022-09-02T22:26:21.963Z,16.89
2022-09-02T22:29:01.393Z,16.86
2022-09-02T22:31:38.006Z,16.82
2022-09-02T22:34:14.098Z,16.77
2022-09-02T22:37:00.811Z,16.74
2022-09-02T22:39:39.226Z,16.71
2022-09-02T22:42:22.026Z,16.69
2022-09-02T22:45:21.810Z,16.67
2022-09-02T22:48:19.954Z,16.65
2022-09-02T22:51:19.013Z,16.63
2022-09-02T22:53:53.126Z,16.60
2022-09-02T22:56:39.203Z,16.57
2022-09-02T22:59:24.735Z,16.53
2022-09-02T23:02:09.829Z,16.51
2022-09-02T23:05:04.403Z,16.50
2022-09-02T23:07:38.853Z,16.46
2022-09-02T23:10:21.379Z,16.46
2022-09-02T23:13:03.256Z,16.46
2022-09-02T23:15:43.314Z,16.44
2022-09-02T23:18:30.212Z,16.39
2022-09-02T23:21:11.489Z,16.40
2022-09-02T23:23:55.059Z,16.37
2022-09-02T23:26:40.260Z,16.37
2022-09-02T23:29:26.617Z,16.35
2022-09-02T23:32:24.180Z,16.34
2022-09-02T23:35:21.850Z,16.31
2022-09-02T23:38:10.375Z,16.26
2022-09-02T23:40:43.248Z,16.23
2022-09-02T23:43:18.687Z,16.16
2022-09-02T23:45:53.891Z,16.12
2022-09-02T23:48:44.233Z,16.09
2022-09-02T23:51:25.319Z,16.06
2022-09-02T23:54:12.419Z,16.03
2022-09-02T23:56:59.325Z,16.00
2022-09-02T23:59:57.058Z,15.96
